Albuquerque, NM (87101)

7:59 PM MST on February 21, 2017 (GMT -0700)
Old Town | | Change Station
Active Advisory: Fire Weather Warning Active Notice: Public Information Statement

Elev 4950 ft 35.09 °N, 106.67 °W | Updated 10 seconds ago

Partly Cloudy
Partly Cloudy
56.0 °F
Feels Like 56.0 °F
N
2.0
Wind Variable Wind from NW

Today
High -- | Low -- °F
--% Chance of Precip.
Yesterday
High -- | Low -- °F
Precip. -- in
Pressure 30.10 in
Visibility 10.0 miles
Clouds Scattered Clouds 25000 ft
Dew Point 30 °F
Humidity 37%
Rainfall 0.00 in
Snow Depth Not available.
6:45 AM 5:55 PM
Waning Crescent, 20% visible
METAR KABQ 220252Z 24005KT 10SM SCT250 14/M02 A3021 RMK AO2 SLP192 T01441022 53002
Pressure 30.10 in
Visibility 10.0 miles
Clouds Scattered Clouds 25000 ft
Dew Point 30 °F
Humidity 37%
Rainfall 0.00 in
Snow Depth Not available.
6:45 AM 5:55 PM
Waning Crescent, 20% visible
METAR KABQ 220252Z 24005KT 10SM SCT250 14/M02 A3021 RMK AO2 SLP192 T01441022 53002

Get Your Daily Forecast Email!

Thanks for signing up!

Be on the lookout for a verification email in your inbox.

You'll start receiving the daily forecast at 8 AM.

×

10-Day Weather Forecast

Almanac

Astronomy

Feb. 21, 2017 Rise Set
Actual Time
Civil Twilight
Nautical Twilight
Astronomical Twilight
Moon
Length of Visible Light
Length of Day
Tomorrow will be .
, % of the Moon is Illuminated

Today's Extremes

State Highs State Lows

Community

WunderPhotos

Upload Photos

1,962,540 photos uploaded!

WunderBlog® & News

Nearby

Air Quality

  Air Quality AQ Index Pollutant
Not available.

Snow Depth

Station Depth Elevation

Earthquake Activity

City Distance Mag. Time & Date
Minimum magnitude displayed is 2.5.

Coastal Water Temperatures

Place Temperature

Stations

Nearby Weather Stations

Station Location Temp. Windchill Dew Point Humidity Wind Precip. Elev Updated Type
                   

Watches & Warnings

Fire Weather Warning
Issued: 2:22 PM MST Feb. 21, 2017 – National Weather Service

... Red flag warning in effect from noon to 7 PM MST Thursday...

The National Weather Service in Albuquerque has issued a red flag
warning... which is in effect from noon to 7 PM MST Thursday. The
Fire Weather Watch is no longer in effect.

* Area and timing... middle Rio Grande Valley and Sandia... Manzano
and Gallinas Mountains below significant snowpack Thursday
afternoon to early evening.

* 20 foot winds... west 20 to 35 mph with gusts 45 to 55 mph
favoring areas along and east of the central mountains.

* Relative humidity... minimum values between 8 to 16 percent.
Lowest values across Socorro County.

* Impacts... any fires that develop will likely spread rapidly.
Outdoor burning is not recommended.

Precautionary/preparedness actions...

Please advise the appropriate officials or fire crews in the
field of this red flag warning.


50